sensor_id;sensor_type;location;lat;lon;timestamp;temperature;humidity
56538;DHT22;42435;53.292;6.000;2022-08-01T00:01:58;20.20;82.60
56538;DHT22;42435;53.292;6.000;2022-08-01T00:04:23;20.10;82.50
56538;DHT22;42435;53.292;6.000;2022-08-01T00:06:49;20.20;82.50
56538;DHT22;42435;53.292;6.000;2022-08-01T00:09:14;20.10;82.40
56538;DHT22;42435;53.292;6.000;2022-08-01T00:11:40;20.00;82.50
56538;DHT22;42435;53.292;6.000;2022-08-01T00:14:07;20.00;82.60
56538;DHT22;42435;53.292;6.000;2022-08-01T00:16:37;20.00;82.60
56538;DHT22;42435;53.292;6.000;2022-08-01T00:19:03;20.00;82.60
56538;DHT22;42435;53.292;6.000;2022-08-01T00:21:29;19.90;82.70
56538;DHT22;42435;53.292;6.000;2022-08-01T00:23:54;20.00;82.60
56538;DHT22;42435;53.292;6.000;2022-08-01T00:26:20;19.90;82.50
56538;DHT22;42435;53.292;6.000;2022-08-01T00:28:45;19.90;82.60
56538;DHT22;42435;53.292;6.000;2022-08-01T00:31:11;19.90;82.70
56538;DHT22;42435;53.292;6.000;2022-08-01T00:33:37;19.80;82.60
56538;DHT22;42435;53.292;6.000;2022-08-01T00:36:02;19.80;82.60
56538;DHT22;42435;53.292;6.000;2022-08-01T00:38:28;19.70;82.50
56538;DHT22;42435;53.292;6.000;2022-08-01T00:40:54;19.70;82.60
56538;DHT22;42435;53.292;6.000;2022-08-01T00:43:19;19.60;82.60
56538;DHT22;42435;53.292;6.000;2022-08-01T00:45:45;19.60;82.60
56538;DHT22;42435;53.292;6.000;2022-08-01T00:48:11;19.50;82.50
56538;DHT22;42435;53.292;6.000;2022-08-01T00:50:37;19.40;82.60
56538;DHT22;42435;53.292;6.000;2022-08-01T00:53:04;19.40;82.60
56538;DHT22;42435;53.292;6.000;2022-08-01T00:55:31;19.40;82.60
56538;DHT22;42435;53.292;6.000;2022-08-01T00:57:58;19.40;82.70
56538;DHT22;42435;53.292;6.000;2022-08-01T01:00:25;19.40;82.80
56538;DHT22;42435;53.292;6.000;2022-08-01T01:02:51;19.30;82.80
56538;DHT22;42435;53.292;6.000;2022-08-01T01:05:17;19.30;82.70
56538;DHT22;42435;53.292;6.000;2022-08-01T01:08:24;19.30;82.70
56538;DHT22;42435;53.292;6.000;2022-08-01T01:11:00;19.20;82.50
56538;DHT22;42435;53.292;6.000;2022-08-01T01:14:08;19.20;82.60
56538;DHT22;42435;53.292;6.000;2022-08-01T01:16:37;19.20;82.50
56538;DHT22;42435;53.292;6.000;2022-08-01T01:19:10;19.20;82.70
56538;DHT22;42435;53.292;6.000;2022-08-01T01:22:17;19.20;82.90
56538;DHT22;42435;53.292;6.000;2022-08-01T01:25:04;19.20;82.80
56538;DHT22;42435;53.292;6.000;2022-08-01T01:27:51;19.20;82.80
56538;DHT22;42435;53.292;6.000;2022-08-01T01:30:19;19.20;82.80
56538;DHT22;42435;53.292;6.000;2022-08-01T01:32:48;19.20;83.00
56538;DHT22;42435;53.292;6.000;2022-08-01T01:35:24;19.20;83.00
56538;DHT22;42435;53.292;6.000;2022-08-01T01:37:58;19.20;83.10
56538;DHT22;42435;53.292;6.000;2022-08-01T01:40:25;19.20;83.00
56538;DHT22;42435;53.292;6.000;2022-08-01T01:42:54;19.20;83.00
56538;DHT22;42435;53.292;6.000;2022-08-01T01:45:21;19.20;82.80
56538;DHT22;42435;53.292;6.000;2022-08-01T01:47:52;19.00;82.80
56538;DHT22;42435;53.292;6.000;2022-08-01T01:50:21;19.00;82.90
56538;DHT22;42435;53.292;6.000;2022-08-01T01:52:48;18.90;83.00
56538;DHT22;42435;53.292;6.000;2022-08-01T01:55:15;18.90;83.00
56538;DHT22;42435;53.292;6.000;2022-08-01T01:57:43;18.90;83.00
56538;DHT22;42435;53.292;6.000;2022-08-01T02:00:12;18.90;83.10
56538;DHT22;42435;53.292;6.000;2022-08-01T02:02:39;18.90;83.10
56538;DHT22;42435;53.292;6.000;2022-08-01T02:05:08;18.90;83.10
56538;DHT22;42435;53.292;6.000;2022-08-01T02:07:35;18.90;83.10
56538;DHT22;42435;53.292;6.000;2022-08-01T02:10:03;18.80;83.00
56538;DHT22;42435;53.292;6.000;2022-08-01T02:12:34;18.80;83.00
56538;DHT22;42435;53.292;6.000;2022-08-01T02:15:02;18.80;83.10
56538;DHT22;42435;53.292;6.000;2022-08-01T02:17:29;18.80;83.10
56538;DHT22;42435;53.292;6.000;2022-08-01T02:19:56;18.80;82.90
56538;DHT22;42435;53.292;6.000;2022-08-01T02:22:40;18.80;83.00
56538;DHT22;42435;53.292;6.000;2022-08-01T02:25:29;18.80;83.00
56538;DHT22;42435;53.292;6.000;2022-08-01T02:28:17;18.80;82.90
56538;DHT22;42435;53.292;6.000;2022-08-01T02:30:47;18.80;82.80
56538;DHT22;42435;53.292;6.000;2022-08-01T02:33:23;18.70;82.90
56538;DHT22;42435;53.292;6.000;2022-08-01T02:35:56;18.70;82.90
56538;DHT22;42435;53.292;6.000;2022-08-01T02:38:25;18.70;82.80
56538;DHT22;42435;53.292;6.000;2022-08-01T02:40:52;18.60;82.80
56538;DHT22;42435;53.292;6.000;2022-08-01T02:43:22;18.70;82.80
56538;DHT22;42435;53.292;6.000;2022-08-01T02:45:54;18.70;82.70
56538;DHT22;42435;53.292;6.000;2022-08-01T02:48:23;18.70;82.70
56538;DHT22;42435;53.292;6.000;2022-08-01T02:50:51;18.60;82.60
56538;DHT22;42435;53.292;6.000;2022-08-01T02:53:20;18.60;82.60
56538;DHT22;42435;53.292;6.000;2022-08-01T02:55:47;18.60;82.50
56538;DHT22;42435;53.292;6.000;2022-08-01T02:58:18;18.60;82.60
56538;DHT22;42435;53.292;6.000;2022-08-01T03:00:46;18.60;82.50
56538;DHT22;42435;53.292;6.000;2022-08-01T03:03:13;18.60;82.50
56538;DHT22;42435;53.292;6.000;2022-08-01T03:05:44;18.50;82.50
56538;DHT22;42435;53.292;6.000;2022-08-01T03:08:10;18.50;82.60
56538;DHT22;42435;53.292;6.000;2022-08-01T03:10:39;18.60;82.60
56538;DHT22;42435;53.292;6.000;2022-08-01T03:13:07;18.60;82.50
56538;DHT22;42435;53.292;6.000;2022-08-01T03:15:36;18.50;82.50
56538;DHT22;42435;53.292;6.000;2022-08-01T03:18:03;18.50;82.40
56538;DHT22;42435;53.292;6.000;2022-08-01T03:20:33;18.50;82.30
56538;DHT22;42435;53.292;6.000;2022-08-01T03:23:03;18.50;82.40
56538;DHT22;42435;53.292;6.000;2022-08-01T03:25:31;18.50;82.40
56538;DHT22;42435;53.292;6.000;2022-08-01T03:28:01;18.50;82.20
56538;DHT22;42435;53.292;6.000;2022-08-01T03:30:27;18.50;82.10
56538;DHT22;42435;53.292;6.000;2022-08-01T03:32:54;18.40;81.90
56538;DHT22;42435;53.292;6.000;2022-08-01T03:35:22;18.40;81.70
56538;DHT22;42435;53.292;6.000;2022-08-01T03:37:52;18.40;81.50
56538;DHT22;42435;53.292;6.000;2022-08-01T03:40:30;18.30;81.40
56538;DHT22;42435;53.292;6.000;2022-08-01T03:43:03;18.20;81.00
56538;DHT22;42435;53.292;6.000;2022-08-01T03:45:36;18.20;81.00
56538;DHT22;42435;53.292;6.000;2022-08-01T03:48:10;18.20;80.90
56538;DHT22;42435;53.292;6.000;2022-08-01T03:50:43;18.10;80.90
56538;DHT22;42435;53.292;6.000;2022-08-01T03:53:11;18.10;81.00
56538;DHT22;42435;53.292;6.000;2022-08-01T03:55:42;18.10;81.00
56538;DHT22;42435;53.292;6.000;2022-08-01T03:58:09;18.10;81.00
56538;DHT22;42435;53.292;6.000;2022-08-01T04:00:36;18.10;80.90
56538;DHT22;42435;53.292;6.000;2022-08-01T04:03:05;18.10;80.60
56538;DHT22;42435;53.292;6.000;2022-08-01T04:05:32;18.00;80.60
56538;DHT22;42435;53.292;6.000;2022-08-01T04:08:01;18.00;80.70
56538;DHT22;42435;53.292;6.000;2022-08-01T04:10:28;18.00;80.70
56538;DHT22;42435;53.292;6.000;2022-08-01T04:12:54;18.00;80.50
56538;DHT22;42435;53.292;6.000;2022-08-01T04:15:20;18.00;80.40
56538;DHT22;42435;53.292;6.000;2022-08-01T04:17:46;18.00;80.00
56538;DHT22;42435;53.292;6.000;2022-08-01T04:20:13;18.00;79.80
56538;DHT22;42435;53.292;6.000;2022-08-01T04:22:39;18.00;79.80
56538;DHT22;42435;53.292;6.000;2022-08-01T04:25:09;17.90;79.90
56538;DHT22;42435;53.292;6.000;2022-08-01T04:27:38;17.90;79.80
56538;DHT22;42435;53.292;6.000;2022-08-01T04:30:09;17.90;79.60
56538;DHT22;42435;53.292;6.000;2022-08-01T04:32:38;17.90;79.70
56538;DHT22;42435;53.292;6.000;2022-08-01T04:35:07;17.90;79.50
56538;DHT22;42435;53.292;6.000;2022-08-01T04:37:36;17.90;79.50
56538;DHT22;42435;53.292;6.000;2022-08-01T04:40:04;17.90;79.40
56538;DHT22;42435;53.292;6.000;2022-08-01T04:42:32;17.90;79.50
56538;DHT22;42435;53.292;6.000;2022-08-01T04:45:01;17.90;79.50
56538;DHT22;42435;53.292;6.000;2022-08-01T04:47:27;17.90;79.50
56538;DHT22;42435;53.292;6.000;2022-08-01T04:49:55;17.90;79.50
56538;DHT22;42435;53.292;6.000;2022-08-01T04:52:22;17.90;79.50
56538;DHT22;42435;53.292;6.000;2022-08-01T04:54:47;17.90;79.40
56538;DHT22;42435;53.292;6.000;2022-08-01T04:57:16;17.90;79.50
56538;DHT22;42435;53.292;6.000;2022-08-01T04:59:44;18.00;79.50
56538;DHT22;42435;53.292;6.000;2022-08-01T05:02:17;18.00;79.60
56538;DHT22;42435;53.292;6.000;2022-08-01T05:04:44;18.10;79.30
56538;DHT22;42435;53.292;6.000;2022-08-01T05:07:11;18.10;79.40
56538;DHT22;42435;53.292;6.000;2022-08-01T05:09:37;18.10;79.40
56538;DHT22;42435;53.292;6.000;2022-08-01T05:12:05;18.20;79.00
56538;DHT22;42435;53.292;6.000;2022-08-01T05:14:31;18.20;79.00
56538;DHT22;42435;53.292;6.000;2022-08-01T05:17:07;18.20;78.90
56538;DHT22;42435;53.292;6.000;2022-08-01T05:19:34;18.20;78.80
56538;DHT22;42435;53.292;6.000;2022-08-01T05:22:01;18.20;79.00
56538;DHT22;42435;53.292;6.000;2022-08-01T05:24:30;18.20;78.80
56538;DHT22;42435;53.292;6.000;2022-08-01T05:26:57;18.20;78.90
56538;DHT22;42435;53.292;6.000;2022-08-01T05:29:23;18.30;78.80
56538;DHT22;42435;53.292;6.000;2022-08-01T05:31:49;18.30;79.00
56538;DHT22;42435;53.292;6.000;2022-08-01T05:34:14;18.30;78.90
56538;DHT22;42435;53.292;6.000;2022-08-01T05:36:40;18.30;78.50
56538;DHT22;42435;53.292;6.000;2022-08-01T05:39:06;18.30;78.60
56538;DHT22;42435;53.292;6.000;2022-08-01T05:41:31;18.30;78.40
56538;DHT22;42435;53.292;6.000;2022-08-01T05:43:57;18.40;78.60
56538;DHT22;42435;53.292;6.000;2022-08-01T05:46:23;18.40;78.20
56538;DHT22;42435;53.292;6.000;2022-08-01T05:48:48;18.40;78.10
56538;DHT22;42435;53.292;6.000;2022-08-01T05:51:14;18.40;77.80
56538;DHT22;42435;53.292;6.000;2022-08-01T05:53:40;18.50;77.60
56538;DHT22;42435;53.292;6.000;2022-08-01T05:56:05;18.50;77.60
56538;DHT22;42435;53.292;6.000;2022-08-01T05:58:31;18.50;77.30
56538;DHT22;42435;53.292;6.000;2022-08-01T06:00:57;18.60;77.20
56538;DHT22;42435;53.292;6.000;2022-08-01T06:03:28;18.60;77.00
56538;DHT22;42435;53.292;6.000;2022-08-01T06:05:59;18.70;77.30
56538;DHT22;42435;53.292;6.000;2022-08-01T06:08:25;18.70;77.10
56538;DHT22;42435;53.292;6.000;2022-08-01T06:10:53;18.90;76.80
56538;DHT22;42435;53.292;6.000;2022-08-01T06:13:19;19.00;76.20
56538;DHT22;42435;53.292;6.000;2022-08-01T06:15:47;19.20;76.10
56538;DHT22;42435;53.292;6.000;2022-08-01T06:18:14;19.40;75.50
56538;DHT22;42435;53.292;6.000;2022-08-01T06:20:39;19.50;74.60
56538;DHT22;42435;53.292;6.000;2022-08-01T06:23:05;19.40;74.30
56538;DHT22;42435;53.292;6.000;2022-08-01T06:25:31;19.40;73.60
56538;DHT22;42435;53.292;6.000;2022-08-01T06:27:57;19.50;73.50
56538;DHT22;42435;53.292;6.000;2022-08-01T06:30:22;19.50;73.70
56538;DHT22;42435;53.292;6.000;2022-08-01T06:32:48;19.50;73.90
56538;DHT22;42435;53.292;6.000;2022-08-01T06:35:14;19.60;73.50
56538;DHT22;42435;53.292;6.000;2022-08-01T06:37:40;19.80;73.60
56538;DHT22;42435;53.292;6.000;2022-08-01T06:40:10;20.00;72.70
56538;DHT22;42435;53.292;6.000;2022-08-01T06:42:42;20.20;72.60
56538;DHT22;42435;53.292;6.000;2022-08-01T06:45:12;20.30;71.90
56538;DHT22;42435;53.292;6.000;2022-08-01T06:47:42;20.40;71.90
56538;DHT22;42435;53.292;6.000;2022-08-01T06:50:09;20.40;71.90
56538;DHT22;42435;53.292;6.000;2022-08-01T06:52:44;20.50;72.40
56538;DHT22;42435;53.292;6.000;2022-08-01T06:55:13;20.80;71.30
56538;DHT22;42435;53.292;6.000;2022-08-01T06:57:51;20.90;71.00
56538;DHT22;42435;53.292;6.000;2022-08-01T07:00:24;21.20;69.90
56538;DHT22;42435;53.292;6.000;2022-08-01T07:03:17;21.20;69.50
56538;DHT22;42435;53.292;6.000;2022-08-01T07:05:42;21.00;69.40
56538;DHT22;42435;53.292;6.000;2022-08-01T07:08:35;21.00;68.70
56538;DHT22;42435;53.292;6.000;2022-08-01T07:11:32;21.10;68.00
56538;DHT22;42435;53.292;6.000;2022-08-01T07:14:10;21.20;69.20
56538;DHT22;42435;53.292;6.000;2022-08-01T07:16:37;21.50;69.00
56538;DHT22;42435;53.292;6.000;2022-08-01T07:19:03;21.80;67.60
56538;DHT22;42435;53.292;6.000;2022-08-01T07:21:29;22.10;66.50
56538;DHT22;42435;53.292;6.000;2022-08-01T07:23:57;22.30;66.60
56538;DHT22;42435;53.292;6.000;2022-08-01T07:26:23;22.30;65.50
56538;DHT22;42435;53.292;6.000;2022-08-01T07:28:48;22.10;65.80
56538;DHT22;42435;53.292;6.000;2022-08-01T07:31:14;22.10;65.80
56538;DHT22;42435;53.292;6.000;2022-08-01T07:33:39;22.20;66.50
56538;DHT22;42435;53.292;6.000;2022-08-01T07:36:05;22.50;66.10
56538;DHT22;42435;53.292;6.000;2022-08-01T07:38:30;22.90;65.10
56538;DHT22;42435;53.292;6.000;2022-08-01T07:40:56;23.20;64.50
56538;DHT22;42435;53.292;6.000;2022-08-01T07:43:22;23.50;63.90
56538;DHT22;42435;53.292;6.000;2022-08-01T07:45:47;23.50;63.00
56538;DHT22;42435;53.292;6.000;2022-08-01T07:48:18;23.50;63.20
56538;DHT22;42435;53.292;6.000;2022-08-01T07:50:51;23.60;63.30
56538;DHT22;42435;53.292;6.000;2022-08-01T07:53:25;23.80;62.20
56538;DHT22;42435;53.292;6.000;2022-08-01T07:55:51;23.60;62.30
56538;DHT22;42435;53.292;6.000;2022-08-01T07:58:17;23.40;61.50
56538;DHT22;42435;53.292;6.000;2022-08-01T08:00:44;23.20;62.40
56538;DHT22;42435;53.292;6.000;2022-08-01T08:03:12;23.10;62.50
56538;DHT22;42435;53.292;6.000;2022-08-01T08:05:38;23.10;62.30
56538;DHT22;42435;53.292;6.000;2022-08-01T08:08:07;23.00;61.80
56538;DHT22;42435;53.292;6.000;2022-08-01T08:10:33;23.00;61.80
56538;DHT22;42435;53.292;6.000;2022-08-01T08:13:02;23.00;61.90
56538;DHT22;42435;53.292;6.000;2022-08-01T08:15:28;22.90;61.60
56538;DHT22;42435;53.292;6.000;2022-08-01T08:17:54;22.90;61.60
56538;DHT22;42435;53.292;6.000;2022-08-01T08:20:19;22.80;62.00
56538;DHT22;42435;53.292;6.000;2022-08-01T08:22:53;22.80;62.00
56538;DHT22;42435;53.292;6.000;2022-08-01T08:25:19;22.80;62.00
56538;DHT22;42435;53.292;6.000;2022-08-01T08:27:48;22.90;61.70
56538;DHT22;42435;53.292;6.000;2022-08-01T08:30:14;22.90;61.50
56538;DHT22;42435;53.292;6.000;2022-08-01T08:32:43;22.70;61.20
56538;DHT22;42435;53.292;6.000;2022-08-01T08:35:09;22.60;61.20
56538;DHT22;42435;53.292;6.000;2022-08-01T08:37:35;22.70;61.40
56538;DHT22;42435;53.292;6.000;2022-08-01T08:40:03;22.90;61.50
56538;DHT22;42435;53.292;6.000;2022-08-01T08:42:31;22.80;61.70
56538;DHT22;42435;53.292;6.000;2022-08-01T08:44:57;22.80;61.30
56538;DHT22;42435;53.292;6.000;2022-08-01T08:47:24;22.80;60.90
56538;DHT22;42435;53.292;6.000;2022-08-01T08:49:54;22.70;61.50
56538;DHT22;42435;53.292;6.000;2022-08-01T08:52:21;22.90;61.20
56538;DHT22;42435;53.292;6.000;2022-08-01T08:54:48;23.20;61.00
56538;DHT22;42435;53.292;6.000;2022-08-01T08:57:15;23.40;61.00
56538;DHT22;42435;53.292;6.000;2022-08-01T08:59:43;23.60;60.10
56538;DHT22;42435;53.292;6.000;2022-08-01T09:02:15;23.80;60.20
56538;DHT22;42435;53.292;6.000;2022-08-01T09:04:41;23.90;59.20
56538;DHT22;42435;53.292;6.000;2022-08-01T09:07:12;24.10;57.80
56538;DHT22;42435;53.292;6.000;2022-08-01T09:09:42;24.20;57.70
56538;DHT22;42435;53.292;6.000;2022-08-01T09:12:11;24.40;56.50
56538;DHT22;42435;53.292;6.000;2022-08-01T09:14:45;24.40;56.10
56538;DHT22;42435;53.292;6.000;2022-08-01T09:17:24;24.50;57.10
56538;DHT22;42435;53.292;6.000;2022-08-01T09:19:52;24.90;57.20
56538;DHT22;42435;53.292;6.000;2022-08-01T09:22:20;24.90;55.30
56538;DHT22;42435;53.292;6.000;2022-08-01T09:24:59;24.80;54.80
56538;DHT22;42435;53.292;6.000;2022-08-01T09:27:28;24.80;54.60
56538;DHT22;42435;53.292;6.000;2022-08-01T09:29:54;24.90;54.60
56538;DHT22;42435;53.292;6.000;2022-08-01T09:32:23;24.90;54.30
56538;DHT22;42435;53.292;6.000;2022-08-01T09:34:48;24.90;54.40
56538;DHT22;42435;53.292;6.000;2022-08-01T09:37:14;24.70;53.40
56538;DHT22;42435;53.292;6.000;2022-08-01T09:39:56;24.60;54.30
56538;DHT22;42435;53.292;6.000;2022-08-01T09:42:34;24.70;53.30
56538;DHT22;42435;53.292;6.000;2022-08-01T09:44:59;24.90;54.60
56538;DHT22;42435;53.292;6.000;2022-08-01T09:47:39;25.20;54.00
56538;DHT22;42435;53.292;6.000;2022-08-01T09:50:06;25.50;53.50
56538;DHT22;42435;53.292;6.000;2022-08-01T09:52:34;25.50;53.30
56538;DHT22;42435;53.292;6.000;2022-08-01T09:55:03;25.50;53.10
56538;DHT22;42435;53.292;6.000;2022-08-01T09:57:29;25.50;52.80
56538;DHT22;42435;53.292;6.000;2022-08-01T09:59:57;25.40;52.50
56538;DHT22;42435;53.292;6.000;2022-08-01T10:05:00;25.40;51.60
56538;DHT22;42435;53.292;6.000;2022-08-01T10:07:29;25.10;52.40
56538;DHT22;42435;53.292;6.000;2022-08-01T10:09:55;24.90;53.20
56538;DHT22;42435;53.292;6.000;2022-08-01T10:12:22;25.10;52.70
56538;DHT22;42435;53.292;6.000;2022-08-01T10:14:50;25.30;51.80
56538;DHT22;42435;53.292;6.000;2022-08-01T10:17:19;25.40;52.30
56538;DHT22;42435;53.292;6.000;2022-08-01T10:19:45;25.80;52.20
56538;DHT22;42435;53.292;6.000;2022-08-01T10:22:12;26.00;50.20
56538;DHT22;42435;53.292;6.000;2022-08-01T10:24:44;26.20;49.90
56538;DHT22;42435;53.292;6.000;2022-08-01T10:27:11;26.40;49.30
56538;DHT22;42435;53.292;6.000;2022-08-01T10:29:51;26.50;49.20
56538;DHT22;42435;53.292;6.000;2022-08-01T10:32:22;26.40;48.70
56538;DHT22;42435;53.292;6.000;2022-08-01T10:34:52;26.30;48.50
56538;DHT22;42435;53.292;6.000;2022-08-01T10:37:18;26.20;47.80
56538;DHT22;42435;53.292;6.000;2022-08-01T10:39:44;26.20;48.20
56538;DHT22;42435;53.292;6.000;2022-08-01T10:42:11;26.10;48.80
56538;DHT22;42435;53.292;6.000;2022-08-01T10:44:38;26.10;48.30
56538;DHT22;42435;53.292;6.000;2022-08-01T10:47:10;26.30;48.70
56538;DHT22;42435;53.292;6.000;2022-08-01T10:50:03;26.40;47.50
56538;DHT22;42435;53.292;6.000;2022-08-01T10:52:29;26.70;47.70
56538;DHT22;42435;53.292;6.000;2022-08-01T10:55:06;27.00;47.40
56538;DHT22;42435;53.292;6.000;2022-08-01T10:57:46;27.10;46.30
56538;DHT22;42435;53.292;6.000;2022-08-01T11:00:22;27.10;47.10
56538;DHT22;42435;53.292;6.000;2022-08-01T11:03:02;27.00;45.50
56538;DHT22;42435;53.292;6.000;2022-08-01T11:05:32;26.90;46.00
56538;DHT22;42435;53.292;6.000;2022-08-01T11:08:10;26.90;46.50
56538;DHT22;42435;53.292;6.000;2022-08-01T11:11:03;26.70;46.50
56538;DHT22;42435;53.292;6.000;2022-08-01T11:14:04;26.30;46.30
56538;DHT22;42435;53.292;6.000;2022-08-01T11:16:38;26.00;46.50
56538;DHT22;42435;53.292;6.000;2022-08-01T11:19:11;25.90;46.50
56538;DHT22;42435;53.292;6.000;2022-08-01T11:35:11;27.10;47.80
56538;DHT22;42435;53.292;6.000;2022-08-01T11:37:37;27.20;47.00
56538;DHT22;42435;53.292;6.000;2022-08-01T11:40:25;27.10;45.90
56538;DHT22;42435;53.292;6.000;2022-08-01T11:48:24;27.20;45.20
56538;DHT22;42435;53.292;6.000;2022-08-01T11:50:51;27.10;45.10
56538;DHT22;42435;53.292;6.000;2022-08-01T11:53:18;26.90;46.70
56538;DHT22;42435;53.292;6.000;2022-08-01T11:55:54;26.70;45.10
56538;DHT22;42435;53.292;6.000;2022-08-01T11:58:25;26.70;45.60
56538;DHT22;42435;53.292;6.000;2022-08-01T12:00:57;26.80;45.90
56538;DHT22;42435;53.292;6.000;2022-08-01T12:03:25;27.00;45.10
56538;DHT22;42435;53.292;6.000;2022-08-01T12:05:53;27.10;45.10
56538;DHT22;42435;53.292;6.000;2022-08-01T12:08:29;27.00;45.60
56538;DHT22;42435;53.292;6.000;2022-08-01T12:10:55;27.20;44.50
56538;DHT22;42435;53.292;6.000;2022-08-01T12:13:21;27.20;43.90
56538;DHT22;42435;53.292;6.000;2022-08-01T12:15:48;27.20;43.80
56538;DHT22;42435;53.292;6.000;2022-08-01T12:18:18;27.30;44.50
56538;DHT22;42435;53.292;6.000;2022-08-01T12:20:47;27.40;44.50
56538;DHT22;42435;53.292;6.000;2022-08-01T12:23:16;27.60;43.50
56538;DHT22;42435;53.292;6.000;2022-08-01T12:25:48;27.60;43.20
56538;DHT22;42435;53.292;6.000;2022-08-01T12:28:16;27.70;42.90
56538;DHT22;42435;53.292;6.000;2022-08-01T12:30:43;27.90;43.00
56538;DHT22;42435;53.292;6.000;2022-08-01T12:33:17;28.00;42.80
56538;DHT22;42435;53.292;6.000;2022-08-01T12:35:43;28.10;42.60
56538;DHT22;42435;53.292;6.000;2022-08-01T12:38:19;28.00;42.40
56538;DHT22;42435;53.292;6.000;2022-08-01T12:40:47;27.70;41.40
56538;DHT22;42435;53.292;6.000;2022-08-01T12:43:31;27.30;42.50
56538;DHT22;42435;53.292;6.000;2022-08-01T12:46:00;27.10;44.20
56538;DHT22;42435;53.292;6.000;2022-08-01T12:48:26;27.00;44.10
56538;DHT22;42435;53.292;6.000;2022-08-01T12:50:56;27.20;43.10
56538;DHT22;42435;53.292;6.000;2022-08-01T12:53:23;27.50;42.70
56538;DHT22;42435;53.292;6.000;2022-08-01T12:55:54;27.70;42.70
56538;DHT22;42435;53.292;6.000;2022-08-01T12:58:21;27.90;42.30
56538;DHT22;42435;53.292;6.000;2022-08-01T13:00:48;28.00;41.70
56538;DHT22;42435;53.292;6.000;2022-08-01T13:03:21;28.00;42.20
56538;DHT22;42435;53.292;6.000;2022-08-01T13:05:55;27.70;42.20
56538;DHT22;42435;53.292;6.000;2022-08-01T13:08:31;27.30;41.40
56538;DHT22;42435;53.292;6.000;2022-08-01T13:11:15;27.00;42.30
56538;DHT22;42435;53.292;6.000;2022-08-01T13:16:12;26.30;43.20
56538;DHT22;42435;53.292;6.000;2022-08-01T13:18:41;26.20;42.80
56538;DHT22;42435;53.292;6.000;2022-08-01T13:21:24;26.20;42.50
56538;DHT22;42435;53.292;6.000;2022-08-01T13:29:09;26.70;42.80
56538;DHT22;42435;53.292;6.000;2022-08-01T13:31:37;26.80;42.30
56538;DHT22;42435;53.292;6.000;2022-08-01T13:34:03;27.00;42.70
56538;DHT22;42435;53.292;6.000;2022-08-01T13:36:31;27.10;42.30
56538;DHT22;42435;53.292;6.000;2022-08-01T13:38:58;27.00;42.00
56538;DHT22;42435;53.292;6.000;2022-08-01T13:41:43;26.90;42.30
56538;DHT22;42435;53.292;6.000;2022-08-01T13:44:09;27.00;42.00
56538;DHT22;42435;53.292;6.000;2022-08-01T13:46:37;27.00;42.30
56538;DHT22;42435;53.292;6.000;2022-08-01T13:49:07;26.80;42.80
56538;DHT22;42435;53.292;6.000;2022-08-01T13:51:33;26.50;42.80
56538;DHT22;42435;53.292;6.000;2022-08-01T13:53:59;26.40;43.10
56538;DHT22;42435;53.292;6.000;2022-08-01T13:56:26;26.40;43.00
56538;DHT22;42435;53.292;6.000;2022-08-01T13:58:56;26.20;42.50
56538;DHT22;42435;53.292;6.000;2022-08-01T14:01:23;25.80;44.00
56538;DHT22;42435;53.292;6.000;2022-08-01T14:03:49;25.70;43.40
56538;DHT22;42435;53.292;6.000;2022-08-01T14:06:19;25.70;43.80
56538;DHT22;42435;53.292;6.000;2022-08-01T14:08:50;25.80;43.80
56538;DHT22;42435;53.292;6.000;2022-08-01T14:11:18;25.80;43.70
56538;DHT22;42435;53.292;6.000;2022-08-01T14:13:44;25.80;43.50
56538;DHT22;42435;53.292;6.000;2022-08-01T14:16:10;25.90;44.00
56538;DHT22;42435;53.292;6.000;2022-08-01T14:18:41;26.00;42.90
56538;DHT22;42435;53.292;6.000;2022-08-01T14:21:07;25.90;43.60
56538;DHT22;42435;53.292;6.000;2022-08-01T14:23:33;25.90;43.80
56538;DHT22;42435;53.292;6.000;2022-08-01T14:25:58;26.10;43.40
56538;DHT22;42435;53.292;6.000;2022-08-01T14:28:27;26.50;41.50
56538;DHT22;42435;53.292;6.000;2022-08-01T14:30:58;26.40;42.00
56538;DHT22;42435;53.292;6.000;2022-08-01T14:33:24;26.20;42.60
56538;DHT22;42435;53.292;6.000;2022-08-01T14:35:52;26.10;42.40
56538;DHT22;42435;53.292;6.000;2022-08-01T14:38:18;26.00;43.60
56538;DHT22;42435;53.292;6.000;2022-08-01T14:40:44;26.00;43.80
56538;DHT22;42435;53.292;6.000;2022-08-01T14:43:12;26.20;44.00
56538;DHT22;42435;53.292;6.000;2022-08-01T14:45:41;26.20;43.80
56538;DHT22;42435;53.292;6.000;2022-08-01T14:48:07;26.30;42.70
56538;DHT22;42435;53.292;6.000;2022-08-01T14:50:32;26.20;44.10
56538;DHT22;42435;53.292;6.000;2022-08-01T14:52:58;26.30;43.90
56538;DHT22;42435;53.292;6.000;2022-08-01T14:55:24;26.30;43.90
56538;DHT22;42435;53.292;6.000;2022-08-01T14:57:51;26.30;44.10
56538;DHT22;42435;53.292;6.000;2022-08-01T15:00:17;26.30;44.30
56538;DHT22;42435;53.292;6.000;2022-08-01T15:02:43;26.40;43.70
56538;DHT22;42435;53.292;6.000;2022-08-01T15:05:09;26.40;43.20
56538;DHT22;42435;53.292;6.000;2022-08-01T15:07:36;26.30;43.20
56538;DHT22;42435;53.292;6.000;2022-08-01T15:10:03;26.10;43.60
56538;DHT22;42435;53.292;6.000;2022-08-01T15:12:29;25.90;43.60
56538;DHT22;42435;53.292;6.000;2022-08-01T15:14:56;25.90;43.80
56538;DHT22;42435;53.292;6.000;2022-08-01T15:17:28;25.70;43.90
56538;DHT22;42435;53.292;6.000;2022-08-01T15:19:56;25.70;42.90
56538;DHT22;42435;53.292;6.000;2022-08-01T15:22:24;25.50;42.90
56538;DHT22;42435;53.292;6.000;2022-08-01T15:24:52;25.50;43.90
56538;DHT22;42435;53.292;6.000;2022-08-01T15:27:18;25.40;43.80
56538;DHT22;42435;53.292;6.000;2022-08-01T15:29:44;25.30;44.20
56538;DHT22;42435;53.292;6.000;2022-08-01T15:32:10;24.90;44.30
56538;DHT22;42435;53.292;6.000;2022-08-01T15:34:37;24.90;45.40
56538;DHT22;42435;53.292;6.000;2022-08-01T15:37:03;25.00;45.80
56538;DHT22;42435;53.292;6.000;2022-08-01T15:39:30;25.20;44.90
56538;DHT22;42435;53.292;6.000;2022-08-01T15:42:03;25.30;44.20
56538;DHT22;42435;53.292;6.000;2022-08-01T15:44:29;25.30;44.70
56538;DHT22;42435;53.292;6.000;2022-08-01T15:46:55;25.30;44.30
56538;DHT22;42435;53.292;6.000;2022-08-01T15:49:20;25.30;45.50
56538;DHT22;42435;53.292;6.000;2022-08-01T15:51:48;25.20;45.30
56538;DHT22;42435;53.292;6.000;2022-08-01T15:54:14;25.20;45.90
56538;DHT22;42435;53.292;6.000;2022-08-01T15:56:43;25.20;44.80
56538;DHT22;42435;53.292;6.000;2022-08-01T15:59:16;25.00;45.00
56538;DHT22;42435;53.292;6.000;2022-08-01T16:01:41;24.90;45.90
56538;DHT22;42435;53.292;6.000;2022-08-01T16:04:07;24.90;45.60
56538;DHT22;42435;53.292;6.000;2022-08-01T16:06:34;24.90;46.00
56538;DHT22;42435;53.292;6.000;2022-08-01T16:09:00;24.90;46.30
56538;DHT22;42435;53.292;6.000;2022-08-01T16:11:26;25.10;46.20
56538;DHT22;42435;53.292;6.000;2022-08-01T16:13:55;25.20;45.70